createdAt,value
2023-11-24T00:00:34.984Z,1001.04
2023-11-24T00:01:34.949Z,1000.96
2023-11-24T00:02:34.875Z,1001.01
2023-11-24T00:03:34.947Z,1000.96
2023-11-24T00:04:34.815Z,1000.94
2023-11-24T00:05:34.835Z,1001.11
2023-11-24T00:06:34.859Z,1001.25
2023-11-24T00:07:34.815Z,1001.20
2023-11-24T00:08:34.780Z,1001.15
2023-11-24T00:09:34.808Z,1001.18
2023-11-24T00:10:34.766Z,1001.29
2023-11-24T00:11:34.772Z,1001.23
2023-11-24T00:12:34.859Z,1001.23
2023-11-24T00:13:34.745Z,1000.99
2023-11-24T00:14:34.746Z,1001.30
2023-11-24T00:15:34.804Z,1001.15
2023-11-24T00:16:34.767Z,1001.19
2023-11-24T00:17:34.795Z,1001.21
2023-11-24T00:18:34.732Z,1001.16
2023-11-24T00:19:34.688Z,1001.23
2023-11-24T00:20:34.636Z,1001.06
2023-11-24T00:21:34.704Z,1001.06
2023-11-24T00:22:34.617Z,1001.05
2023-11-24T00:23:34.644Z,1001.17
2023-11-24T00:24:35.170Z,1001.08
2023-11-24T00:25:34.618Z,1001.11
2023-11-24T00:26:34.574Z,1000.95
2023-11-24T00:27:34.598Z,1000.92
2023-11-24T00:28:34.573Z,1001.25
2023-11-24T00:29:34.615Z,1000.99
2023-11-24T00:30:34.596Z,1001.03
2023-11-24T00:31:34.540Z,1001.02
2023-11-24T00:32:34.552Z,1001.03
2023-11-24T00:33:34.675Z,1001.08
2023-11-24T00:34:34.601Z,1001.00
2023-11-24T00:35:34.564Z,1001.00
2023-11-24T00:36:34.586Z,1001.01
2023-11-24T00:37:34.505Z,1001.20
2023-11-24T00:38:34.483Z,1001.07
2023-11-24T00:39:34.519Z,1000.98
2023-11-24T00:40:34.496Z,1001.04
2023-11-24T00:41:34.469Z,1001.10
2023-11-24T00:42:35.534Z,1001.15
2023-11-24T00:43:34.443Z,1000.90
2023-11-24T00:44:34.423Z,1001.00
2023-11-24T00:45:34.477Z,1001.13
2023-11-24T00:46:34.413Z,1000.93
2023-11-24T00:47:34.466Z,1001.19
2023-11-24T00:48:34.432Z,1001.14
2023-11-24T00:49:34.365Z,1001.13
2023-11-24T00:50:34.771Z,1001.13
2023-11-24T00:51:34.448Z,1001.13
2023-11-24T00:52:34.378Z,1001.10
2023-11-24T00:53:34.331Z,1001.28
2023-11-24T00:54:34.490Z,1001.20
2023-11-24T00:55:35.295Z,1001.03
2023-11-24T00:56:34.290Z,1001.15
2023-11-24T00:57:35.236Z,1001.32
2023-11-24T00:58:34.270Z,1001.45
2023-11-24T00:59:34.418Z,1001.39
2023-11-24T01:00:34.371Z,1001.12
2023-11-24T01:01:34.349Z,1001.47
2023-11-24T01:02:35.232Z,1001.18
2023-11-24T01:03:34.338Z,1001.25
2023-11-24T01:04:34.249Z,1001.23
2023-11-24T01:05:35.184Z,1001.19
2023-11-24T01:06:34.272Z,1001.19
2023-11-24T01:07:34.190Z,1001.37
2023-11-24T01:08:34.193Z,1001.33
2023-11-24T01:09:35.281Z,1001.29
2023-11-24T01:10:34.148Z,1001.31
2023-11-24T01:11:34.171Z,1001.41
2023-11-24T01:12:34.165Z,1001.38
2023-11-24T01:13:35.074Z,1001.36
2023-11-24T01:14:34.123Z,1001.36
2023-11-24T01:15:34.126Z,1001.41
2023-11-24T01:16:34.093Z,1001.58
2023-11-24T01:17:34.177Z,1001.79
2023-11-24T01:18:34.131Z,1001.46
2023-11-24T01:19:35.023Z,1001.52
2023-11-24T01:20:34.033Z,1001.28
2023-11-24T01:21:34.045Z,1001.43
2023-11-24T01:22:34.010Z,1001.51
2023-11-24T01:23:33.984Z,1001.59
2023-11-24T01:24:34.959Z,1001.56
2023-11-24T01:25:33.970Z,1001.64
2023-11-24T01:26:33.965Z,1001.69
2023-11-24T01:27:33.994Z,1001.52
2023-11-24T01:28:33.925Z,1001.17
2023-11-24T01:29:33.906Z,1001.38
2023-11-24T01:30:34.941Z,1001.63
2023-11-24T01:31:33.924Z,1001.41
2023-11-24T01:32:33.889Z,1001.45
2023-11-24T01:33:33.968Z,1001.45
2023-11-24T01:34:33.951Z,1001.47
2023-11-24T01:35:33.868Z,1001.40
2023-11-24T01:36:34.885Z,1001.44
2023-11-24T01:37:33.891Z,1001.55
2023-11-24T01:38:33.799Z,1001.29
2023-11-24T01:39:33.824Z,1001.49
2023-11-24T01:40:33.778Z,1001.35
2023-11-24T01:41:33.790Z,1001.48
2023-11-24T01:42:33.813Z,1001.40
2023-11-24T01:43:33.752Z,1001.32
2023-11-24T01:44:33.729Z,1001.33
2023-11-24T01:45:33.795Z,1001.34
2023-11-24T01:46:33.762Z,1001.48
2023-11-24T01:47:33.743Z,1001.56
2023-11-24T01:48:33.787Z,1001.63
2023-11-24T01:49:33.683Z,1001.49
2023-11-24T01:50:33.679Z,1001.50
2023-11-24T01:51:33.752Z,1001.46
2023-11-24T01:52:33.656Z,1001.39
2023-11-24T01:53:33.648Z,1001.38
2023-11-24T01:54:33.680Z,1001.42
2023-11-24T01:55:33.657Z,1001.46
2023-11-24T01:56:34.573Z,1001.41
2023-11-24T01:57:33.640Z,1001.40
2023-11-24T01:58:33.582Z,1001.37
2023-11-24T01:59:33.587Z,1001.33
2023-11-24T02:00:33.630Z,1001.42
2023-11-24T02:01:33.581Z,1001.39
2023-11-24T02:02:33.631Z,1001.47
2023-11-24T02:03:33.677Z,1001.31
2023-11-24T02:04:33.522Z,1001.40
2023-11-24T02:05:33.522Z,1001.51
2023-11-24T02:06:33.538Z,1001.32
2023-11-24T02:07:33.505Z,1001.42
2023-11-24T02:08:33.486Z,1001.35
2023-11-24T02:09:33.507Z,1001.32
2023-11-24T02:10:33.465Z,1001.27
2023-11-24T02:11:33.485Z,1001.19
2023-11-24T02:12:33.488Z,1001.21
2023-11-24T02:13:33.444Z,1001.20
2023-11-24T02:14:42.079Z,1001.20
2023-11-24T02:15:33.439Z,1001.16
2023-11-24T02:16:35.156Z,1001.27
2023-11-24T02:17:35.102Z,1001.14
2023-11-24T02:18:33.458Z,1001.30
2023-11-24T02:19:33.357Z,1001.22
2023-11-24T02:20:33.386Z,1001.22
2023-11-24T02:21:33.400Z,1001.18
2023-11-24T02:22:33.324Z,1001.14
2023-11-24T02:23:33.335Z,1001.11
2023-11-24T02:24:34.092Z,1001.14
2023-11-24T02:25:33.311Z,1001.26
2023-11-24T02:26:33.269Z,1000.94
2023-11-24T02:27:33.320Z,1001.08
2023-11-24T02:28:33.286Z,1001.08
2023-11-24T02:29:33.261Z,1001.14
2023-11-24T02:30:33.308Z,1001.05
2023-11-24T02:31:33.291Z,1001.32
2023-11-24T02:32:33.215Z,1001.15
2023-11-24T02:33:33.285Z,1001.06
2023-11-24T02:34:33.249Z,1001.02
2023-11-24T02:35:33.329Z,1001.02
2023-11-24T02:36:33.222Z,1001.16
2023-11-24T02:37:33.210Z,1001.23
2023-11-24T02:38:33.141Z,1001.08
2023-11-24T02:39:33.161Z,1000.98
2023-11-24T02:40:33.137Z,1001.04
2023-11-24T02:41:33.136Z,1000.99
2023-11-24T02:42:33.211Z,1001.07
2023-11-24T02:43:33.110Z,1001.12
2023-11-24T02:44:33.149Z,1001.04
2023-11-24T02:45:33.170Z,1001.04
2023-11-24T02:46:33.074Z,1001.09
2023-11-24T02:47:33.136Z,1001.01
2023-11-24T02:48:33.186Z,1001.06
2023-11-24T02:49:33.071Z,1001.16
2023-11-24T02:50:33.034Z,1001.10
2023-11-24T02:51:33.049Z,1001.09
2023-11-24T02:52:33.022Z,1001.07
2023-11-24T02:53:32.989Z,1001.08
2023-11-24T02:54:33.037Z,1001.00
2023-11-24T02:55:32.962Z,1001.06
2023-11-24T02:56:32.941Z,1000.95
2023-11-24T02:57:32.954Z,1001.02
2023-11-24T02:58:32.931Z,1001.09
2023-11-24T02:59:32.940Z,1001.06
2023-11-24T03:00:32.977Z,1001.04
2023-11-24T03:01:32.985Z,1001.03
2023-11-24T03:02:33.011Z,1001.07
2023-11-24T03:03:32.891Z,1001.00
2023-11-24T03:04:32.937Z,1001.13
2023-11-24T03:05:32.865Z,1000.97
2023-11-24T03:06:32.911Z,1000.96
2023-11-24T03:07:32.854Z,1000.93
2023-11-24T03:08:32.826Z,1000.99
2023-11-24T03:09:32.833Z,1001.03
2023-11-24T03:10:32.823Z,1000.91
2023-11-24T03:11:32.789Z,1000.81
2023-11-24T03:12:33.851Z,1000.96
2023-11-24T03:13:32.768Z,1001.39
2023-11-24T03:14:32.767Z,1000.90
2023-11-24T03:15:32.793Z,1000.96
2023-11-24T03:16:32.809Z,1000.83
2023-11-24T03:17:32.788Z,1000.87
2023-11-24T03:18:32.811Z,1000.92
2023-11-24T03:19:32.725Z,1000.91
2023-11-24T03:20:32.711Z,1000.80
2023-11-24T03:21:32.704Z,1000.78
2023-11-24T03:22:32.688Z,1000.79
2023-11-24T03:23:32.697Z,1000.83
2023-11-24T03:24:32.748Z,1000.88
2023-11-24T03:25:32.659Z,1000.88
2023-11-24T03:26:32.642Z,1000.80
2023-11-24T03:27:32.666Z,1000.88
2023-11-24T03:28:32.626Z,1000.83
2023-11-24T03:29:33.408Z,1000.89
2023-11-24T03:30:32.689Z,1000.86
2023-11-24T03:31:32.586Z,1000.86
2023-11-24T03:32:32.631Z,1000.83
2023-11-24T03:33:32.640Z,1000.93
2023-11-24T03:34:32.674Z,1000.80
2023-11-24T03:35:32.521Z,1000.62
2023-11-24T03:36:32.681Z,1000.83
2023-11-24T03:37:32.539Z,1000.85
2023-11-24T03:38:32.517Z,1000.75
2023-11-24T03:39:32.496Z,1000.74
2023-11-24T03:40:32.510Z,1000.70
2023-11-24T03:41:32.472Z,1000.73
2023-11-24T03:42:32.545Z,1000.67
2023-11-24T03:43:32.485Z,1000.68
2023-11-24T03:44:32.444Z,1000.65
2023-11-24T03:45:32.495Z,1000.48
2023-11-24T03:46:32.464Z,1000.74
2023-11-24T03:47:32.459Z,1000.59
2023-11-24T03:48:32.480Z,1000.65
2023-11-24T03:49:32.385Z,1000.79
2023-11-24T03:50:32.412Z,1000.60
2023-11-24T03:51:32.386Z,1000.64
2023-11-24T03:52:32.351Z,1000.74
2023-11-24T03:53:32.337Z,1000.56
2023-11-24T03:54:32.389Z,1000.63
2023-11-24T03:55:32.369Z,1000.56
2023-11-24T03:56:32.316Z,1000.46
2023-11-24T03:57:32.333Z,1000.52
2023-11-24T03:58:32.284Z,1000.50
2023-11-24T03:59:32.279Z,1000.45
2023-11-24T04:00:32.435Z,1000.49
2023-11-24T04:01:32.455Z,1000.44
2023-11-24T04:02:32.280Z,1000.35
2023-11-24T04:03:33.209Z,1000.53
2023-11-24T04:04:32.308Z,1000.49
2023-11-24T04:05:32.233Z,1000.44
2023-11-24T04:06:32.254Z,1000.45
2023-11-24T04:07:32.209Z,1000.46
2023-11-24T04:08:32.173Z,1000.47
2023-11-24T04:09:32.402Z,1000.41
2023-11-24T04:10:32.159Z,1000.49
2023-11-24T04:11:32.152Z,1000.36
2023-11-24T04:12:32.253Z,1000.36
2023-11-24T04:13:32.128Z,1000.42
2023-11-24T04:14:32.115Z,1000.41
2023-11-24T04:15:32.188Z,1000.43
2023-11-24T04:16:32.165Z,1000.43
2023-11-24T04:17:32.136Z,1000.34
2023-11-24T04:18:32.164Z,1000.45
2023-11-24T04:19:32.042Z,1000.35
2023-11-24T04:20:32.075Z,1000.39
2023-11-24T04:21:32.070Z,1000.50
2023-11-24T04:22:32.024Z,1000.36
2023-11-24T04:23:32.012Z,1000.33
2023-11-24T04:24:32.103Z,1000.34
2023-11-24T04:25:32.028Z,1000.30
2023-11-24T04:26:32.029Z,1000.30
2023-11-24T04:27:31.973Z,1000.35
2023-11-24T04:28:31.981Z,1000.26
2023-11-24T04:29:31.956Z,1000.37
2023-11-24T04:30:32.009Z,1000.27
2023-11-24T04:31:31.929Z,1000.34
2023-11-24T04:32:32.002Z,1000.22
2023-11-24T04:33:31.935Z,1000.18
2023-11-24T04:34:31.988Z,1000.22
2023-11-24T04:35:31.889Z,1000.10
2023-11-24T04:36:31.993Z,1000.19
2023-11-24T04:37:31.861Z,1000.18
2023-11-24T04:38:31.905Z,1000.21
2023-11-24T04:39:31.844Z,1000.15
2023-11-24T04:40:31.831Z,1000.14
2023-11-24T04:41:31.809Z,1000.38
2023-11-24T04:42:31.856Z,1000.34
2023-11-24T04:43:31.861Z,1000.34
2023-11-24T04:44:31.818Z,1000.22
2023-11-24T04:45:31.860Z,1000.28
2023-11-24T04:46:31.900Z,1000.16
2023-11-24T04:47:31.806Z,1000.18
2023-11-24T04:48:31.842Z,1000.20
2023-11-24T04:49:31.746Z,1000.13
2023-11-24T04:50:31.731Z,1000.10
2023-11-24T04:51:31.742Z,1000.19
2023-11-24T04:52:31.718Z,1000.09
2023-11-24T04:53:31.694Z,1000.19
2023-11-24T04:54:31.774Z,1000.14
2023-11-24T04:55:31.670Z,1000.14
2023-11-24T04:56:31.671Z,1000.30
2023-11-24T04:57:31.668Z,1000.30
2023-11-24T04:58:31.651Z,1000.14
2023-11-24T04:59:31.633Z,1000.22
2023-11-24T05:00:31.695Z,1000.10
2023-11-24T05:01:32.660Z,1000.20
2023-11-24T05:02:31.701Z,1000.12
2023-11-24T05:03:32.350Z,999.97
2023-11-24T05:04:31.669Z,1000.17
2023-11-24T05:05:31.574Z,1000.22
2023-11-24T05:06:31.603Z,1000.15
2023-11-24T05:07:31.552Z,1000.15
2023-11-24T05:08:31.583Z,1000.18
2023-11-24T05:09:32.571Z,1000.17
2023-11-24T05:10:31.499Z,1000.16
2023-11-24T05:11:32.482Z,1000.16
2023-11-24T05:12:31.570Z,1000.21
2023-11-24T05:13:31.481Z,1000.17
2023-11-24T05:14:31.465Z,1000.09
2023-11-24T05:15:31.487Z,999.93
2023-11-24T05:16:31.528Z,999.85
2023-11-24T05:17:31.444Z,999.88
2023-11-24T05:18:31.502Z,999.84
2023-11-24T05:19:31.414Z,999.81
2023-11-24T05:20:31.416Z,999.81
2023-11-24T05:21:31.401Z,999.80
2023-11-24T05:22:31.412Z,999.81
2023-11-24T05:23:31.406Z,999.93
2023-11-24T05:24:31.404Z,999.91
2023-11-24T05:25:31.374Z,999.80
2023-11-24T05:26:31.338Z,999.77
2023-11-24T05:27:31.358Z,999.75
2023-11-24T05:28:31.323Z,999.85
2023-11-24T05:29:31.296Z,999.89
2023-11-24T05:30:31.361Z,999.80
2023-11-24T05:31:31.323Z,999.73
2023-11-24T05:32:31.316Z,999.65
2023-11-24T05:33:31.298Z,999.59
2023-11-24T05:34:31.260Z,999.60
2023-11-24T05:35:31.238Z,999.64
2023-11-24T05:36:31.277Z,999.63
2023-11-24T05:37:31.239Z,999.60
2023-11-24T05:38:31.213Z,999.54
2023-11-24T05:39:31.284Z,999.56
2023-11-24T05:40:31.198Z,999.51
2023-11-24T05:41:31.171Z,999.59
2023-11-24T05:42:31.373Z,999.47
2023-11-24T05:43:31.139Z,999.48
2023-11-24T05:44:31.133Z,999.45
2023-11-24T05:45:38.393Z,999.46
2023-11-24T05:46:31.203Z,999.38
2023-11-24T05:47:31.151Z,999.45
2023-11-24T05:48:33.941Z,999.41
2023-11-24T05:49:31.075Z,999.33
2023-11-24T05:50:31.110Z,999.46
2023-11-24T05:51:31.094Z,999.42
2023-11-24T05:52:31.125Z,999.42
2023-11-24T05:53:31.056Z,999.39
2023-11-24T05:54:31.095Z,999.34
2023-11-24T05:55:31.053Z,999.43
2023-11-24T05:56:31.020Z,999.33
2023-11-24T05:57:31.020Z,999.38
2023-11-24T05:58:30.996Z,999.31
2023-11-24T05:59:31.795Z,999.34
2023-11-24T06:00:31.058Z,999.32
2023-11-24T06:01:30.960Z,999.27
2023-11-24T06:02:30.948Z,999.29
2023-11-24T06:03:31.035Z,999.28
2023-11-24T06:04:31.060Z,999.29
2023-11-24T06:05:30.958Z,999.36
2023-11-24T06:06:30.948Z,999.26
2023-11-24T06:07:30.886Z,999.36
2023-11-24T06:08:30.888Z,999.22
2023-11-24T06:09:31.151Z,999.32
2023-11-24T06:10:31.545Z,999.20
2023-11-24T06:11:30.840Z,999.32
2023-11-24T06:12:31.156Z,999.36
2023-11-24T06:13:30.814Z,999.25
2023-11-24T06:14:30.828Z,999.35
2023-11-24T06:15:30.829Z,999.39
2023-11-24T06:16:30.808Z,999.33
2023-11-24T06:17:31.182Z,999.16
2023-11-24T06:18:30.817Z,999.35
2023-11-24T06:19:30.744Z,999.25
2023-11-24T06:20:30.746Z,999.35
2023-11-24T06:21:30.852Z,999.21
2023-11-24T06:22:30.724Z,999.27
2023-11-24T06:23:30.713Z,999.21
2023-11-24T06:24:30.805Z,999.18
2023-11-24T06:25:30.695Z,999.18
2023-11-24T06:26:30.687Z,999.29
2023-11-24T06:27:30.713Z,999.24
2023-11-24T06:28:30.670Z,999.26
2023-11-24T06:29:30.651Z,999.28
2023-11-24T06:30:30.723Z,999.29
2023-11-24T06:31:30.642Z,999.34
2023-11-24T06:32:30.643Z,999.27
2023-11-24T06:33:30.658Z,999.30
2023-11-24T06:34:31.185Z,999.40
2023-11-24T06:35:30.598Z,999.31
2023-11-24T06:36:32.955Z,999.28
2023-11-24T06:37:30.584Z,999.38
2023-11-24T06:38:30.563Z,999.37
2023-11-24T06:39:30.573Z,999.37
2023-11-24T06:40:30.555Z,999.39
2023-11-24T06:41:30.518Z,999.36
2023-11-24T06:42:30.562Z,999.41
2023-11-24T06:43:30.524Z,999.35
2023-11-24T06:44:30.508Z,999.38
2023-11-24T06:45:30.583Z,999.33
2023-11-24T06:46:30.501Z,999.35
2023-11-24T06:47:30.481Z,999.39
2023-11-24T06:48:30.538Z,999.29
2023-11-24T06:49:30.454Z,999.30
2023-11-24T06:50:30.437Z,999.23
2023-11-24T06:51:30.460Z,999.23
2023-11-24T06:52:30.420Z,999.31
2023-11-24T06:53:30.388Z,999.21
2023-11-24T06:54:30.421Z,999.20
2023-11-24T06:55:30.368Z,999.32
2023-11-24T06:56:30.447Z,999.28
2023-11-24T06:57:30.382Z,999.32
2023-11-24T06:58:30.346Z,999.31
2023-11-24T06:59:30.327Z,999.22
2023-11-24T07:00:30.393Z,999.32
2023-11-24T07:01:30.443Z,999.27
2023-11-24T07:02:30.435Z,999.28
2023-11-24T07:03:30.307Z,999.33
2023-11-24T07:04:30.303Z,999.31
2023-11-24T07:05:30.276Z,999.28
2023-11-24T07:06:30.295Z,999.30
2023-11-24T07:07:30.284Z,999.26
2023-11-24T07:08:30.230Z,999.33
2023-11-24T07:09:30.220Z,999.30
2023-11-24T07:10:30.248Z,999.25
2023-11-24T07:11:30.202Z,999.37
2023-11-24T07:12:30.231Z,999.35
2023-11-24T07:13:30.188Z,999.46
2023-11-24T07:14:30.154Z,999.29
2023-11-24T07:15:30.166Z,999.28
2023-11-24T07:16:30.170Z,999.24
2023-11-24T07:17:30.165Z,999.35
2023-11-24T07:18:30.302Z,999.25
2023-11-24T07:19:30.191Z,999.23
2023-11-24T07:20:30.088Z,999.28
2023-11-24T07:21:30.095Z,999.27
2023-11-24T07:22:30.066Z,999.44
2023-11-24T07:23:30.077Z,999.27
2023-11-24T07:24:30.086Z,999.24
2023-11-24T07:25:30.050Z,999.29
2023-11-24T07:26:30.038Z,999.19
2023-11-24T07:27:32.180Z,999.34
2023-11-24T07:28:29.998Z,999.13
2023-11-24T07:29:30.023Z,999.18
2023-11-24T07:30:30.027Z,999.30
2023-11-24T07:31:29.983Z,999.26
2023-11-24T07:32:29.981Z,999.29
2023-11-24T07:33:29.973Z,999.34
2023-11-24T07:34:30.032Z,999.30
2023-11-24T07:35:29.952Z,999.22
2023-11-24T07:36:29.947Z,999.35
2023-11-24T07:37:29.939Z,999.52
2023-11-24T07:38:29.898Z,999.23
2023-11-24T07:39:29.928Z,999.44
2023-11-24T07:40:29.880Z,999.39
2023-11-24T07:41:29.908Z,999.38
2023-11-24T07:42:29.912Z,999.43
2023-11-24T07:43:29.862Z,999.26
2023-11-24T07:44:29.862Z,999.43
2023-11-24T07:45:29.838Z,999.47
2023-11-24T07:46:29.922Z,999.29
2023-11-24T07:47:29.838Z,999.25
2023-11-24T07:48:29.809Z,999.39
2023-11-24T07:49:29.790Z,999.44
2023-11-24T07:50:29.772Z,999.39
2023-11-24T07:51:29.774Z,999.47
2023-11-24T07:52:29.757Z,999.34
2023-11-24T07:53:29.755Z,999.45
2023-11-24T07:54:29.776Z,999.36
2023-11-24T07:55:29.731Z,999.44
2023-11-24T07:56:29.708Z,999.53
2023-11-24T07:57:29.699Z,999.55
2023-11-24T07:58:29.678Z,999.62
2023-11-24T07:59:29.706Z,999.46
2023-11-24T08:00:29.688Z,999.78
2023-11-24T08:01:29.754Z,999.74
2023-11-24T08:02:29.703Z,999.88
2023-11-24T08:03:29.686Z,999.64
2023-11-24T08:04:29.851Z,999.81
2023-11-24T08:05:29.621Z,999.63
2023-11-24T08:06:29.639Z,999.59
2023-11-24T08:07:29.611Z,999.59
2023-11-24T08:08:29.587Z,999.62
2023-11-24T08:09:29.584Z,999.48
2023-11-24T08:10:29.570Z,999.68
2023-11-24T08:11:29.568Z,999.54
2023-11-24T08:12:29.571Z,999.64
2023-11-24T08:13:29.531Z,999.57
2023-11-24T08:14:29.508Z,999.58
2023-11-24T08:15:29.535Z,999.40
2023-11-24T08:16:29.722Z,999.26
2023-11-24T08:17:29.557Z,999.35
2023-11-24T08:18:29.514Z,999.33
2023-11-24T08:19:29.478Z,999.39
2023-11-24T08:20:29.460Z,999.31
2023-11-24T08:21:29.456Z,999.30
2023-11-24T08:22:29.442Z,999.26
2023-11-24T08:23:29.450Z,999.23
2023-11-24T08:24:29.434Z,999.32
2023-11-24T08:25:29.406Z,999.30
2023-11-24T08:26:29.375Z,999.24
2023-11-24T08:27:29.401Z,999.26
2023-11-24T08:28:29.355Z,999.38
2023-11-24T08:29:29.350Z,999.26
2023-11-24T08:30:29.381Z,999.23
2023-11-24T08:31:29.343Z,999.24
2023-11-24T08:32:29.358Z,999.25
2023-11-24T08:33:29.333Z,999.20
2023-11-24T08:34:29.435Z,999.13
2023-11-24T08:35:30.299Z,999.15
2023-11-24T08:36:29.302Z,999.16
2023-11-24T08:37:29.281Z,999.07
2023-11-24T08:38:29.250Z,999.08
2023-11-24T08:39:29.270Z,999.03
2023-11-24T08:40:29.243Z,999.06
2023-11-24T08:41:35.539Z,998.95
2023-11-24T08:42:30.251Z,998.93
2023-11-24T08:43:29.218Z,998.91
2023-11-24T08:44:29.208Z,998.91
2023-11-24T08:45:29.230Z,998.86
2023-11-24T08:46:29.240Z,998.87
2023-11-24T08:47:29.367Z,998.88
2023-11-24T08:48:29.197Z,998.90
2023-11-24T08:49:29.147Z,998.88
2023-11-24T08:50:29.122Z,998.85
2023-11-24T08:51:30.087Z,998.89
2023-11-24T08:52:29.120Z,998.84
2023-11-24T08:53:29.091Z,998.86
2023-11-24T08:54:29.127Z,998.87
2023-11-24T08:55:29.131Z,998.81
2023-11-24T08:56:29.055Z,998.80
2023-11-24T08:57:29.063Z,998.82
2023-11-24T08:58:29.055Z,998.90
2023-11-24T08:59:29.031Z,998.83
2023-11-24T09:00:29.071Z,998.82
2023-11-24T09:01:30.616Z,998.84
2023-11-24T09:02:29.050Z,998.78
2023-11-24T09:03:29.001Z,998.86
2023-11-24T09:04:29.176Z,998.74
2023-11-24T09:05:29.061Z,998.75
2023-11-24T09:06:29.000Z,998.72
2023-11-24T09:07:28.947Z,998.76
2023-11-24T09:08:28.958Z,998.73
2023-11-24T09:09:28.930Z,998.68
2023-11-24T09:10:28.906Z,998.65
2023-11-24T09:11:28.904Z,998.60
2023-11-24T09:12:28.931Z,998.64
2023-11-24T09:13:28.903Z,998.55
2023-11-24T09:14:28.907Z,998.59
2023-11-24T09:15:28.921Z,998.64
2023-11-24T09:16:28.947Z,998.63
2023-11-24T09:17:28.872Z,998.54
2023-11-24T09:18:28.854Z,998.53
2023-11-24T09:19:28.826Z,998.51
2023-11-24T09:20:28.821Z,998.58
2023-11-24T09:21:28.807Z,998.53
2023-11-24T09:22:28.785Z,998.58
2023-11-24T09:23:28.812Z,998.56
2023-11-24T09:24:28.847Z,998.45
2023-11-24T09:25:29.772Z,998.47
2023-11-24T09:26:28.746Z,998.41
2023-11-24T09:27:28.740Z,998.48
2023-11-24T09:28:28.724Z,998.27
2023-11-24T09:29:28.742Z,998.34
2023-11-24T09:30:28.746Z,998.35
2023-11-24T09:31:28.763Z,998.45
2023-11-24T09:32:28.695Z,998.39
2023-11-24T09:33:28.675Z,998.38
2023-11-24T09:34:28.745Z,998.37
2023-11-24T09:35:28.661Z,998.36
2023-11-24T09:36:28.666Z,998.39
2023-11-24T09:37:28.645Z,998.46
2023-11-24T09:38:28.623Z,998.28
2023-11-24T09:39:28.656Z,998.36
2023-11-24T09:40:28.590Z,998.18
2023-11-24T09:41:28.597Z,998.23
2023-11-24T09:42:28.607Z,998.24
2023-11-24T09:43:29.542Z,998.15
2023-11-24T09:44:28.553Z,998.29
2023-11-24T09:45:28.558Z,998.18
2023-11-24T09:46:36.509Z,998.15
2023-11-24T09:47:30.579Z,998.17
2023-11-24T09:48:28.550Z,998.19
2023-11-24T09:49:28.502Z,998.17
2023-11-24T09:50:28.530Z,998.18
2023-11-24T09:51:28.486Z,998.19
2023-11-24T09:52:28.470Z,998.27
2023-11-24T09:53:28.507Z,997.98
2023-11-24T09:54:28.442Z,998.05
2023-11-24T09:55:28.736Z,998.12
2023-11-24T09:56:28.415Z,998.15
2023-11-24T09:57:28.417Z,997.94
2023-11-24T09:58:28.395Z,998.02
2023-11-24T09:59:28.432Z,997.98
2023-11-24T10:00:29.231Z,997.99
2023-11-24T10:01:28.378Z,998.03
2023-11-24T10:02:28.457Z,998.18
2023-11-24T10:03:29.207Z,997.92
2023-11-24T10:04:28.411Z,997.90
2023-11-24T10:05:28.421Z,997.88
2023-11-24T10:06:28.332Z,997.83
2023-11-24T10:07:28.306Z,997.74
2023-11-24T10:08:28.281Z,997.76
2023-11-24T10:09:28.289Z,997.64
2023-11-24T10:10:28.301Z,997.68
2023-11-24T10:11:28.289Z,997.62
2023-11-24T10:12:28.259Z,997.65
2023-11-24T10:13:28.243Z,997.65
2023-11-24T10:14:28.275Z,997.67
2023-11-24T10:15:28.217Z,997.57
2023-11-24T10:16:28.243Z,997.56
2023-11-24T10:17:28.291Z,997.62
2023-11-24T10:18:28.176Z,997.76
2023-11-24T10:19:28.220Z,997.59
2023-11-24T10:20:28.167Z,997.51
2023-11-24T10:21:32.513Z,997.72
2023-11-24T10:22:29.182Z,997.54
2023-11-24T10:23:28.135Z,997.46
2023-11-24T10:24:28.117Z,997.50
2023-11-24T10:25:28.135Z,997.48
2023-11-24T10:26:28.113Z,997.46
2023-11-24T10:27:28.078Z,997.48
2023-11-24T10:28:28.130Z,997.28
2023-11-24T10:29:28.062Z,997.35
2023-11-24T10:30:28.060Z,997.37
2023-11-24T10:31:28.065Z,997.41
2023-11-24T10:32:28.043Z,997.30
2023-11-24T10:33:35.265Z,997.31
2023-11-24T10:34:29.156Z,997.47
2023-11-24T10:35:28.080Z,997.28
2023-11-24T10:36:28.005Z,997.34
2023-11-24T10:37:27.992Z,997.30
2023-11-24T10:38:27.955Z,997.30
2023-11-24T10:39:27.979Z,997.34
2023-11-24T10:40:27.975Z,997.36
2023-11-24T10:41:27.942Z,997.25
2023-11-24T10:42:27.914Z,997.22
2023-11-24T10:43:27.927Z,997.29
2023-11-24T10:44:27.880Z,997.27
2023-11-24T10:45:27.911Z,997.33
2023-11-24T10:46:28.031Z,997.31
2023-11-24T10:47:27.911Z,997.42
2023-11-24T10:48:27.872Z,997.34
2023-11-24T10:49:27.854Z,997.27
2023-11-24T10:50:28.832Z,997.12
2023-11-24T10:51:27.849Z,997.25
2023-11-24T10:52:27.834Z,997.16
2023-11-24T10:53:27.803Z,996.91
2023-11-24T10:54:27.784Z,997.04
2023-11-24T10:55:27.793Z,997.13
2023-11-24T10:56:27.778Z,996.92
2023-11-24T10:57:27.770Z,997.06
2023-11-24T10:58:27.811Z,996.99
2023-11-24T10:59:27.757Z,996.90
2023-11-24T11:00:27.744Z,997.06
2023-11-24T11:01:27.801Z,996.78
2023-11-24T11:02:27.767Z,996.87
2023-11-24T11:03:27.745Z,996.69
2023-11-24T11:04:27.750Z,996.85
2023-11-24T11:05:27.738Z,996.80
2023-11-24T11:06:27.664Z,996.70
2023-11-24T11:07:27.690Z,996.70
2023-11-24T11:08:27.635Z,996.48
2023-11-24T11:09:27.638Z,996.74
2023-11-24T11:10:27.751Z,996.74
2023-11-24T11:11:27.628Z,996.73
2023-11-24T11:12:27.590Z,996.48
2023-11-24T11:13:27.590Z,996.60
2023-11-24T11:14:27.583Z,996.57
2023-11-24T11:15:27.594Z,996.50
2023-11-24T11:16:27.634Z,996.45
2023-11-24T11:17:27.563Z,996.68
2023-11-24T11:18:27.546Z,996.41
2023-11-24T11:19:27.520Z,996.54
2023-11-24T11:20:27.515Z,996.62
2023-11-24T11:21:27.507Z,996.59
2023-11-24T11:22:27.530Z,996.69
2023-11-24T11:23:27.501Z,996.58
2023-11-24T11:24:27.476Z,996.48
2023-11-24T11:25:27.460Z,996.59
2023-11-24T11:26:27.464Z,996.55
2023-11-24T11:27:27.413Z,996.77
2023-11-24T11:28:27.444Z,996.53
2023-11-24T11:29:27.410Z,996.56
2023-11-24T11:30:27.433Z,996.63
2023-11-24T11:31:27.493Z,996.59
2023-11-24T11:32:27.494Z,996.71
2023-11-24T11:33:27.357Z,996.63
2023-11-24T11:34:27.400Z,996.54
2023-11-24T11:35:27.346Z,996.59
2023-11-24T11:36:27.327Z,996.44
2023-11-24T11:37:27.338Z,996.48
2023-11-24T11:38:27.326Z,996.56
2023-11-24T11:39:27.401Z,996.48
2023-11-24T11:40:27.347Z,996.45
2023-11-24T11:41:27.275Z,996.29
2023-11-24T11:42:27.296Z,996.31
2023-11-24T11:43:27.350Z,996.40
2023-11-24T11:44:27.874Z,996.25
2023-11-24T11:45:27.246Z,996.25
2023-11-24T11:46:27.321Z,996.39
2023-11-24T11:47:27.298Z,996.23
2023-11-24T11:48:27.214Z,996.31
2023-11-24T11:49:27.176Z,995.88
2023-11-24T11:50:27.192Z,996.27
2023-11-24T11:51:27.159Z,996.07
2023-11-24T11:52:27.723Z,996.03
2023-11-24T11:53:27.143Z,996.04
2023-11-24T11:54:27.137Z,996.18
2023-11-24T11:55:27.179Z,996.15
2023-11-24T11:56:27.135Z,996.35
2023-11-24T11:57:27.102Z,996.14
2023-11-24T11:58:27.189Z,996.16
2023-11-24T11:59:27.085Z,996.11
2023-11-24T12:00:27.127Z,996.22
2023-11-24T12:01:27.130Z,996.15
2023-11-24T12:02:27.125Z,996.10
2023-11-24T12:03:27.077Z,996.29
2023-11-24T12:04:27.118Z,996.19
2023-11-24T12:05:27.062Z,996.05
2023-11-24T12:06:27.045Z,996.09
2023-11-24T12:07:27.024Z,996.02
2023-11-24T12:08:26.998Z,996.04
2023-11-24T12:09:26.957Z,995.95
2023-11-24T12:10:27.101Z,995.92
2023-11-24T12:11:26.949Z,995.72
2023-11-24T12:12:26.944Z,995.75
2023-11-24T12:13:27.937Z,995.74
2023-11-24T12:14:26.937Z,995.65
2023-11-24T12:15:26.918Z,995.79
2023-11-24T12:16:27.962Z,995.82
2023-11-24T12:17:26.872Z,995.84
2023-11-24T12:18:26.883Z,995.88